KLSF/LSF METAR and TAF weather

Enter ICAO airport designator
Station Type Date Time Source
KLSF METAR 2021/05/12 01:28 UTC NOAA

KLSF 120128Z AUTO 00000KT 10SM FEW002 SCT045 BKN065 BKN120 20/19 A3004 RMK AO2 RAE28 SLP176 $


Station Type Date Time Source
KLSF Decoded METAR 2021/05/12 01:28 UTC NOAA

Fort Benning, GA, United States (KLSF) 32-20N 084-50W 130M
May 11, 2021 - 09:28 PM EDT / 2021.05.12 0128 UTC
Wind: Calm:0
Visibility: 10 mile(s):0
Sky conditions: mostly cloudy
Temperature: 68 F (20 C)
Dew Point: 66 F (19 C)
Relative Humidity: 93%
Pressure (altimeter): 30.04 in. Hg (1017 hPa)
ob: KLSF 120128Z AUTO 00000KT 10SM FEW002 SCT045 BKN065 BKN120 20/19 A3004 RMK AO2 RAE28 SLP176
cycle: 1

Station Type Date Time Source
KLSF TAF 2021/05/11 21:20 UTC NOAA

TAF KLSF 112100Z 1121/1303 31004KT 9999 VCSH SCT040 SCT060 BKN120 QNH2998INS
BECMG 1122/1123 29006KT 9999 -SHRA VCTS BKN035 BKN050CB OVC100 QNH3001INS
TEMPO 1123/1203 VRB10G15KT 4800 -TSRA FEW020 BKN030CB
BECMG 1204/1205 29004KT 9999 VCSH BKN010 OVC020 QNH3000INS
BECMG 1210/1211 34003KT 3200 -RA VCTS BKN007 OVC015CB QNH3005INS
BECMG 1216/1217 35010G18KT 9999 -SHRA OVC005 QNH3008INS
BECMG 1218/1219 03012G20KT 9999 NSW BKN012 BKN030 QNH3005INS TX22/1221Z TN18/1210Z LAST NO
AMDS AFT 1203 NEXT 1213

Example: see airport list